Terminal Aerodrome Forecast
Issued by NWS

Home | Current Version | Previous Version | Text Only | Print | Product List | Glossary On
Versions: 1 2 3 4 5 6 7 8 9 10 11 12 13 14 15
000
FTUS45 KTFX 030500
TAFGTF
TAF
KGTF 030520Z 0306/0406 VRB06KT P6SM SCT100 BKN200
     FM030800 25011KT P6SM SCT080 BKN150
     FM031300 28012G20KT P6SM BKN080
     FM032000 30015KT P6SM VCSH BKN050
     FM040200 33015G22KT P6SM VCSH BKN035=

USA.gov is the U.S. government's official web portal to all federal, state and local government web resources and services.